createdAt,value
2023-05-11T00:00:52.233Z,11.05
2023-05-11T00:05:54.983Z,16.48
2023-05-11T00:11:00.716Z,11.85
2023-05-11T00:16:05.476Z,12.85
2023-05-11T00:21:08.533Z,7.35
2023-05-11T00:26:11.338Z,16.58
2023-05-11T00:31:15.844Z,8.63
2023-05-11T00:36:18.644Z,7.75
2023-05-11T00:41:21.637Z,11.65
2023-05-11T00:46:26.267Z,4.40
2023-05-11T00:51:29.673Z,3.30
2023-05-11T00:56:32.420Z,2.60
2023-05-11T01:01:39.144Z,8.57
2023-05-11T01:06:49.096Z,3.83
2023-05-11T01:12:01.557Z,7.72
2023-05-11T01:17:17.605Z,5.75
2023-05-11T01:22:32.108Z,17.17
2023-05-11T01:28:09.548Z,4.75
2023-05-11T01:33:15.909Z,2.40
2023-05-11T01:38:22.524Z,8.67
2023-05-11T01:43:28.895Z,3.22
2023-05-11T01:48:39.343Z,6.65
2023-05-11T01:53:43.542Z,8.57
2023-05-11T01:58:48.958Z,5.18
2023-05-11T02:03:56.321Z,6.10
2023-05-11T02:09:01.710Z,6.25
2023-05-11T02:14:06.684Z,6.97
2023-05-11T02:19:13.348Z,5.72
2023-05-11T02:24:17.508Z,7.60
2023-05-11T02:29:20.369Z,28.73
2023-05-11T02:34:28.670Z,10.35
2023-05-11T02:39:36.095Z,7.43
2023-05-11T02:44:40.272Z,7.05
2023-05-11T02:49:46.530Z,7.85
2023-05-11T02:54:51.438Z,5.60
2023-05-11T02:59:54.789Z,6.20
2023-05-11T03:04:59.782Z,5.93
2023-05-11T03:10:06.186Z,8.90
2023-05-11T03:15:13.923Z,6.80
2023-05-11T03:20:23.257Z,5.85
2023-05-11T03:25:27.083Z,11.43
2023-05-11T03:30:31.139Z,19.40
2023-05-11T03:35:37.624Z,14.32
2023-05-11T03:40:42.522Z,11.30
2023-05-11T03:45:46.531Z,11.25
2023-05-11T03:50:51.306Z,10.27
2023-05-11T03:55:54.830Z,9.88
2023-05-11T04:00:58.276Z,8.20
2023-05-11T04:06:03.033Z,8.45
2023-05-11T04:11:08.744Z,11.52
2023-05-11T04:16:15.243Z,7.95
2023-05-11T04:21:19.388Z,12.48
2023-05-11T04:26:22.550Z,7.07
2023-05-11T04:31:25.927Z,21.98
2023-05-11T04:36:30.396Z,9.25
2023-05-11T04:41:33.300Z,5.70
2023-05-11T04:46:38.441Z,5.20
2023-05-11T04:51:43.641Z,12.88
2023-05-11T04:56:46.928Z,10.10
2023-05-11T05:01:50.679Z,5.00
2023-05-11T05:06:54.821Z,6.55
2023-05-11T05:11:58.148Z,6.00
2023-05-11T05:17:01.919Z,16.55
2023-05-11T05:22:09.215Z,5.65
2023-05-11T05:27:12.611Z,5.20
2023-05-11T05:32:16.971Z,12.55
2023-05-11T05:37:22.961Z,10.75
2023-05-11T05:42:26.915Z,13.85
2023-05-11T05:47:30.505Z,7.30
2023-05-11T05:52:35.323Z,10.65
2023-05-11T05:57:38.844Z,6.82
2023-05-11T06:02:43.369Z,9.55
2023-05-11T06:08:09.105Z,6.45
2023-05-11T06:13:13.578Z,6.47
2023-05-11T06:18:20.056Z,6.95
2023-05-11T06:23:28.900Z,7.05
2023-05-11T06:28:33.993Z,8.43
2023-05-11T06:33:40.440Z,7.53
2023-05-11T06:38:50.033Z,8.57
2023-05-11T06:43:53.296Z,9.18
2023-05-11T06:49:02.284Z,9.90
2023-05-11T06:54:07.766Z,8.93
2023-05-11T06:59:12.803Z,8.57
2023-05-11T07:04:15.710Z,8.27
2023-05-11T07:09:20.002Z,10.07
2023-05-11T07:14:22.895Z,8.27
2023-05-11T07:19:26.032Z,8.00
2023-05-11T07:24:30.158Z,8.82
2023-05-11T07:29:32.905Z,9.80
2023-05-11T07:34:35.632Z,9.35
2023-05-11T07:39:41.059Z,11.45
2023-05-11T07:44:45.068Z,9.90
2023-05-11T07:49:48.645Z,9.95
2023-05-11T07:54:52.720Z,9.90
2023-05-11T07:59:56.015Z,7.00
2023-05-11T08:04:59.584Z,8.10
2023-05-11T08:10:03.738Z,10.25
2023-05-11T08:15:07.337Z,7.90
2023-05-11T08:20:10.980Z,12.80
2023-05-11T08:25:16.421Z,8.45
2023-05-11T08:30:23.954Z,14.75
2023-05-11T08:35:27.171Z,7.88
2023-05-11T08:40:32.253Z,8.90
2023-05-11T08:45:39.815Z,10.20
2023-05-11T08:50:44.444Z,10.43
2023-05-11T08:55:51.925Z,7.93
2023-05-11T09:00:56.151Z,6.70
2023-05-11T09:06:01.135Z,16.77
2023-05-11T09:11:06.341Z,8.32
2023-05-11T09:16:23.471Z,43.53
2023-05-11T09:21:32.808Z,21.85
2023-05-11T09:26:37.409Z,6.85
2023-05-11T09:31:41.868Z,7.53
2023-05-11T09:36:45.616Z,5.95
2023-05-11T09:41:51.372Z,8.00
2023-05-11T09:47:11.733Z,7.85
2023-05-11T09:52:17.566Z,9.10
2023-05-11T09:57:26.664Z,7.38
2023-05-11T10:02:31.327Z,8.15
2023-05-11T10:07:36.197Z,9.13
2023-05-11T10:12:40.637Z,8.88
2023-05-11T10:17:45.695Z,11.82
2023-05-11T10:22:49.005Z,6.68
2023-05-11T10:27:55.816Z,5.97
2023-05-11T10:33:00.473Z,7.50
2023-05-11T10:38:03.515Z,8.07
2023-05-11T10:43:26.219Z,5.68
2023-05-11T10:48:58.238Z,5.20
2023-05-11T10:54:18.211Z,9.52
2023-05-11T10:59:53.612Z,7.93
2023-05-11T11:04:58.689Z,6.05
2023-05-11T11:10:06.285Z,9.43
2023-05-11T11:15:13.365Z,6.68
2023-05-11T11:20:50.305Z,7.00
2023-05-11T11:25:55.278Z,5.47
2023-05-11T11:31:32.405Z,4.93
2023-05-11T11:37:06.102Z,8.25
2023-05-11T11:42:10.486Z,11.32
2023-05-11T11:47:17.258Z,8.00
2023-05-11T11:52:36.160Z,8.82
2023-05-11T11:57:49.120Z,6.05
2023-05-11T12:02:55.129Z,7.55
2023-05-11T12:08:01.100Z,7.18
2023-05-11T12:13:07.626Z,11.73
2023-05-11T12:18:22.940Z,6.70
2023-05-11T12:23:25.743Z,12.18
2023-05-11T12:28:28.451Z,6.18
2023-05-11T12:33:33.445Z,6.63
2023-05-11T12:38:44.428Z,8.68
2023-05-11T12:43:47.650Z,8.73
2023-05-11T12:48:52.657Z,6.22
2023-05-11T12:53:58.373Z,9.00
2023-05-11T12:59:02.073Z,7.03
2023-05-11T13:04:07.789Z,9.23
2023-05-11T13:09:11.375Z,6.43
2023-05-11T13:14:20.021Z,9.57
2023-05-11T13:19:31.157Z,8.85
2023-05-11T13:24:34.778Z,8.68
2023-05-11T13:29:39.555Z,9.18
2023-05-11T13:34:43.859Z,10.20
2023-05-11T13:39:46.604Z,9.50
2023-05-11T13:44:50.394Z,6.22
2023-05-11T13:49:56.183Z,6.10
2023-05-11T13:55:02.452Z,8.15
2023-05-11T14:00:10.386Z,7.32
2023-05-11T14:05:19.421Z,9.63
2023-05-11T14:10:24.933Z,10.32
2023-05-11T14:15:30.132Z,17.77
2023-05-11T14:20:34.380Z,6.78
2023-05-11T14:25:37.168Z,10.43
2023-05-11T14:30:39.972Z,9.98
2023-05-11T14:35:45.439Z,10.50
2023-05-11T14:40:51.733Z,13.75
2023-05-11T14:45:56.240Z,12.13
2023-05-11T14:51:00.349Z,14.35
2023-05-11T14:56:04.544Z,16.08
2023-05-11T15:01:08.204Z,13.23
2023-05-11T15:06:12.440Z,17.88
2023-05-11T15:11:16.108Z,12.20
2023-05-11T15:16:18.993Z,13.55
2023-05-11T15:21:23.432Z,14.57
2023-05-11T15:26:27.194Z,10.10
2023-05-11T15:31:30.153Z,9.40
2023-05-11T15:36:35.212Z,16.83
2023-05-11T15:41:37.976Z,10.50
2023-05-11T15:46:41.463Z,12.32
2023-05-11T15:51:46.417Z,10.63
2023-05-11T15:56:49.329Z,24.85
2023-05-11T16:01:52.166Z,19.38
2023-05-11T16:06:58.760Z,15.13
2023-05-11T16:12:01.969Z,14.30
2023-05-11T16:17:05.140Z,12.88
2023-05-11T16:22:09.326Z,15.95
2023-05-11T16:27:13.723Z,18.48
2023-05-11T16:32:16.493Z,21.98
2023-05-11T16:37:20.693Z,20.73
2023-05-11T16:42:25.700Z,10.63
2023-05-11T16:47:28.549Z,7.80
2023-05-11T16:52:34.718Z,40.47
2023-05-11T16:57:37.953Z,13.93
2023-05-11T17:02:43.110Z,14.13
2023-05-11T17:07:47.304Z,13.73
2023-05-11T17:12:50.158Z,19.13
2023-05-11T17:17:53.603Z,11.60
2023-05-11T17:22:58.542Z,11.80
2023-05-11T17:28:01.551Z,18.23
2023-05-11T17:33:04.679Z,6.45
2023-05-11T17:38:09.607Z,6.13
2023-05-11T17:43:13.972Z,5.07
2023-05-11T17:48:16.815Z,7.70
2023-05-11T17:53:21.597Z,8.13
2023-05-11T17:58:26.416Z,11.90
2023-05-11T18:03:29.947Z,8.32
2023-05-11T18:08:37.626Z,8.43
2023-05-11T18:13:41.393Z,6.60
2023-05-11T18:18:44.904Z,5.97
2023-05-11T18:23:49.115Z,6.15
2023-05-11T18:28:51.907Z,8.85
2023-05-11T18:33:55.908Z,10.45
2023-05-11T18:38:59.991Z,9.32
2023-05-11T18:44:04.652Z,8.93
2023-05-11T18:49:07.623Z,11.63
2023-05-11T18:54:14.359Z,16.08
2023-05-11T18:59:17.176Z,9.25
2023-05-11T19:04:22.949Z,10.85
2023-05-11T19:09:28.964Z,9.27
2023-05-11T19:14:34.766Z,8.65
2023-05-11T19:19:38.341Z,12.50
2023-05-11T19:24:44.708Z,9.60
2023-05-11T19:29:50.732Z,9.98
2023-05-11T19:34:53.568Z,17.83
2023-05-11T19:40:11.462Z,8.98
2023-05-11T19:45:21.145Z,14.68
2023-05-11T19:50:26.463Z,15.00
2023-05-11T19:55:31.059Z,14.32
2023-05-11T20:00:35.525Z,17.98
2023-05-11T20:05:38.361Z,14.60
2023-05-11T20:10:42.726Z,14.73
2023-05-11T20:15:45.508Z,11.82
2023-05-11T20:20:48.254Z,15.45
2023-05-11T20:25:52.664Z,18.25
2023-05-11T20:30:58.223Z,15.38
2023-05-11T20:36:01.236Z,18.55
2023-05-11T20:41:05.470Z,18.73
2023-05-11T20:46:08.373Z,16.77
2023-05-11T20:51:11.190Z,15.52
2023-05-11T20:56:15.284Z,22.35
2023-05-11T21:01:18.345Z,21.25
2023-05-11T21:06:21.568Z,21.30
2023-05-11T21:11:25.684Z,19.73
2023-05-11T21:16:28.478Z,16.73
2023-05-11T21:21:31.713Z,22.05
2023-05-11T21:26:35.927Z,21.13
2023-05-11T21:31:38.735Z,25.25
2023-05-11T21:36:42.012Z,20.60
2023-05-11T21:41:46.135Z,25.52
2023-05-11T21:46:49.120Z,21.83
2023-05-11T21:51:52.256Z,26.80
2023-05-11T21:56:56.395Z,25.35
2023-05-11T22:01:59.207Z,29.60
2023-05-11T22:07:02.158Z,29.67
2023-05-11T22:12:07.841Z,27.15
2023-05-11T22:17:10.863Z,24.80
2023-05-11T22:22:13.645Z,27.05
2023-05-11T22:27:17.732Z,22.25
2023-05-11T22:32:21.635Z,28.67
2023-05-11T22:37:24.869Z,21.23
2023-05-11T22:42:30.784Z,26.48
2023-05-11T22:47:33.825Z,23.73
2023-05-11T22:52:37.503Z,23.65
2023-05-11T22:57:41.566Z,21.25
2023-05-11T23:02:44.409Z,23.40
2023-05-11T23:07:47.311Z,26.38
2023-05-11T23:12:51.363Z,30.67
2023-05-11T23:17:54.161Z,26.58
2023-05-11T23:22:57.025Z,29.50
2023-05-11T23:28:01.181Z,23.95
2023-05-11T23:33:04.034Z,24.00
2023-05-11T23:38:06.851Z,24.88
2023-05-11T23:43:10.994Z,25.45
2023-05-11T23:48:14.001Z,27.33
2023-05-11T23:53:16.783Z,25.73
2023-05-11T23:58:20.894Z,27.77
